createdAt,value
2022-10-16T00:00:39.672Z,100348.72
2022-10-16T00:03:07.024Z,100337.78
2022-10-16T00:05:34.184Z,100345.47
2022-10-16T00:08:00.777Z,100339.19
2022-10-16T00:10:27.278Z,100311.03
2022-10-16T00:12:54.076Z,100341.06
2022-10-16T00:15:20.525Z,100338.94
2022-10-16T00:17:46.979Z,100291.50
2022-10-16T00:20:13.465Z,100310.34
2022-10-16T00:22:41.024Z,100276.50
2022-10-16T00:25:07.816Z,100307.31
2022-10-16T00:27:34.994Z,100346.53
2022-10-16T00:30:01.710Z,100279.19
2022-10-16T00:32:28.431Z,100345.88
2022-10-16T00:34:58.038Z,100322.59
2022-10-16T00:37:24.486Z,100343.50
2022-10-16T00:39:51.097Z,100337.09
2022-10-16T00:42:19.264Z,100340.47
2022-10-16T00:44:53.398Z,100353.44
2022-10-16T00:47:35.614Z,100314.56
2022-10-16T00:50:20.066Z,100313.34
2022-10-16T00:52:48.845Z,100310.19
2022-10-16T00:55:15.478Z,100320.66
2022-10-16T00:57:42.920Z,100348.97
2022-10-16T01:00:11.768Z,100356.50
2022-10-16T01:02:38.299Z,100334.91
2022-10-16T01:05:05.528Z,100345.00
2022-10-16T01:07:35.043Z,100345.75
2022-10-16T01:10:19.986Z,100348.41
2022-10-16T01:13:00.616Z,100337.41
2022-10-16T01:15:48.833Z,100355.44
2022-10-16T01:18:45.419Z,100348.84
2022-10-16T01:21:17.617Z,100314.09
2022-10-16T01:23:50.084Z,100368.84
2022-10-16T01:26:36.220Z,100357.28
2022-10-16T01:29:06.242Z,100359.63
2022-10-16T01:31:36.446Z,100362.16
2022-10-16T01:35:04.853Z,100369.69
2022-10-16T01:37:40.617Z,100337.50
2022-10-16T01:40:11.042Z,100326.59
2022-10-16T01:42:44.249Z,100383.06
2022-10-16T01:45:14.120Z,100374.47
2022-10-16T01:47:41.754Z,100375.06
2022-10-16T01:50:09.224Z,100345.88
2022-10-16T01:52:38.572Z,100300.50
2022-10-16T01:55:07.007Z,100311.72
2022-10-16T01:57:38.386Z,100329.97
2022-10-16T02:00:09.042Z,100330.63
2022-10-16T02:02:35.653Z,100311.06
2022-10-16T02:05:19.688Z,100359.44
2022-10-16T02:07:46.155Z,100358.28
2022-10-16T02:10:12.712Z,100372.50
2022-10-16T02:12:43.033Z,100365.63
2022-10-16T02:15:10.089Z,100345.19
2022-10-16T02:17:36.767Z,100363.22
2022-10-16T02:20:04.651Z,100364.16
2022-10-16T02:22:36.013Z,100366.91
2022-10-16T02:25:11.524Z,100307.00
2022-10-16T02:27:52.126Z,100316.88
2022-10-16T02:30:22.746Z,100385.81
2022-10-16T02:32:49.908Z,100338.44
2022-10-16T02:35:18.595Z,100380.59
2022-10-16T02:37:45.570Z,100317.97
2022-10-16T02:40:12.443Z,100375.50
2022-10-16T02:42:42.870Z,100380.31
2022-10-16T02:45:11.078Z,100292.47
2022-10-16T02:47:37.743Z,100316.78
2022-10-16T02:50:05.188Z,100365.97
2022-10-16T02:52:31.653Z,100329.53
2022-10-16T02:54:58.089Z,100338.84
2022-10-16T02:57:24.727Z,100289.28
2022-10-16T02:59:51.785Z,100379.81
2022-10-16T03:02:18.238Z,100325.09
2022-10-16T03:04:44.777Z,100344.50
2022-10-16T03:07:11.526Z,100313.50
2022-10-16T03:09:38.041Z,100360.78
2022-10-16T03:12:04.952Z,100382.78
2022-10-16T03:14:31.439Z,100334.84
2022-10-16T03:16:57.922Z,100302.16
2022-10-16T03:19:24.721Z,100360.22
2022-10-16T03:21:51.433Z,100310.22
2022-10-16T03:24:17.877Z,100331.63
2022-10-16T03:26:44.344Z,100291.53
2022-10-16T03:29:10.974Z,100358.28
2022-10-16T03:31:37.472Z,100362.25
2022-10-16T03:34:04.056Z,100375.53
2022-10-16T03:36:30.528Z,100390.06
2022-10-16T03:38:57.009Z,100378.78
2022-10-16T03:41:23.533Z,100357.50
2022-10-16T03:43:50.151Z,100320.44
2022-10-16T03:46:16.897Z,100306.28
2022-10-16T03:48:43.421Z,100360.78
2022-10-16T03:51:09.906Z,100328.41
2022-10-16T03:53:36.405Z,100351.56
2022-10-16T03:56:02.980Z,100338.84
2022-10-16T03:58:29.544Z,100362.63
2022-10-16T04:00:56.247Z,100362.81
2022-10-16T04:03:23.951Z,100355.44
2022-10-16T04:05:50.914Z,100381.56
2022-10-16T04:08:17.479Z,100369.66
2022-10-16T04:10:44.793Z,100393.09
2022-10-16T04:13:12.587Z,100397.78
2022-10-16T04:15:40.496Z,100398.47
2022-10-16T04:18:08.876Z,100356.63
2022-10-16T04:20:35.529Z,100385.72
2022-10-16T04:23:02.048Z,100377.28
2022-10-16T04:25:28.662Z,100327.38
2022-10-16T04:27:55.457Z,100406.50
2022-10-16T04:30:22.804Z,100402.13
2022-10-16T04:32:51.077Z,100369.84
2022-10-16T04:35:22.432Z,100309.53
2022-10-16T04:37:48.907Z,100385.78
2022-10-16T04:40:15.560Z,100428.88
2022-10-16T04:42:43.112Z,100374.00
2022-10-16T04:45:12.190Z,100416.19
2022-10-16T04:47:41.389Z,100367.97
2022-10-16T04:50:08.524Z,100437.09
2022-10-16T04:55:03.630Z,100428.22
2022-10-16T04:57:30.629Z,100439.16
2022-10-16T04:59:57.570Z,100391.38
2022-10-16T05:02:24.202Z,100449.13
2022-10-16T05:04:52.800Z,100406.78
2022-10-16T05:07:19.461Z,100436.47
2022-10-16T05:09:45.957Z,100437.78
2022-10-16T05:12:12.494Z,100435.00
2022-10-16T05:14:39.058Z,100435.72
2022-10-16T05:17:05.634Z,100392.78
2022-10-16T05:19:32.173Z,100425.16
2022-10-16T05:21:58.741Z,100428.63
2022-10-16T05:24:25.706Z,100459.31
2022-10-16T05:26:52.410Z,100368.88
2022-10-16T05:29:19.161Z,100465.75
2022-10-16T05:31:45.676Z,100449.06
2022-10-16T05:34:12.354Z,100477.25
2022-10-16T05:36:38.861Z,100467.03
2022-10-16T05:39:05.541Z,100408.19
2022-10-16T05:41:32.722Z,100454.28
2022-10-16T05:44:01.590Z,100424.59
2022-10-16T05:46:28.054Z,100404.13
2022-10-16T05:48:54.563Z,100497.22
2022-10-16T05:51:21.123Z,100492.84
2022-10-16T05:53:47.723Z,100494.66
2022-10-16T05:56:14.345Z,100474.41
2022-10-16T05:59:01.043Z,100492.69
2022-10-16T06:01:27.656Z,100458.00
2022-10-16T06:03:54.180Z,100489.88
2022-10-16T06:06:23.782Z,100508.41
2022-10-16T06:08:50.648Z,100504.19
2022-10-16T06:11:22.760Z,100508.75
2022-10-16T06:13:53.402Z,100512.47
2022-10-16T06:16:20.170Z,100518.84
2022-10-16T06:18:47.206Z,100524.22
2022-10-16T06:21:22.614Z,100498.59
2022-10-16T06:23:49.587Z,100484.03
2022-10-16T06:26:18.459Z,100532.06
2022-10-16T06:28:45.161Z,100510.28
2022-10-16T06:31:14.685Z,100501.06
2022-10-16T06:33:41.670Z,100496.94
2022-10-16T06:36:10.666Z,100549.34
2022-10-16T06:38:37.464Z,100522.88
2022-10-16T06:41:05.047Z,100540.78
2022-10-16T06:43:36.379Z,100556.28
2022-10-16T06:46:07.655Z,100528.16
2022-10-16T06:48:37.007Z,100569.78
2022-10-16T06:51:15.379Z,100543.75
2022-10-16T06:54:01.833Z,100548.47
2022-10-16T06:56:31.743Z,100587.94
2022-10-16T06:58:58.858Z,100586.59
2022-10-16T07:01:26.456Z,100588.38
2022-10-16T07:03:53.953Z,100590.66
2022-10-16T07:06:24.157Z,100592.94
2022-10-16T07:08:50.963Z,100600.69
2022-10-16T07:11:22.192Z,100564.81
2022-10-16T07:13:52.953Z,100580.38
2022-10-16T07:16:26.034Z,100613.75
2022-10-16T07:18:58.754Z,100575.84
2022-10-16T07:21:29.860Z,100603.38
2022-10-16T07:24:01.931Z,100569.47
2022-10-16T07:26:31.173Z,100615.72
2022-10-16T07:28:58.355Z,100619.41
2022-10-16T07:31:25.301Z,100607.22
2022-10-16T07:33:52.585Z,100638.66
2022-10-16T07:36:20.929Z,100640.81
2022-10-16T07:38:48.683Z,100590.25
2022-10-16T07:41:18.011Z,100620.34
2022-10-16T07:43:49.083Z,100513.78
2022-10-16T07:46:17.322Z,100656.38
2022-10-16T07:48:49.127Z,100666.28
2022-10-16T07:51:19.422Z,100652.94
2022-10-16T07:53:46.072Z,100656.09
2022-10-16T07:56:13.010Z,100650.69
2022-10-16T07:58:39.882Z,100622.19
2022-10-16T08:01:11.136Z,100663.03
2022-10-16T08:03:37.808Z,100668.78
2022-10-16T08:06:05.193Z,100647.16
2022-10-16T08:08:31.800Z,100631.69
2022-10-16T08:10:58.342Z,100673.31
2022-10-16T08:13:24.927Z,100670.28
2022-10-16T08:15:54.800Z,100675.28
2022-10-16T08:18:21.304Z,100646.63
2022-10-16T08:20:47.766Z,100700.19
2022-10-16T08:23:14.553Z,100708.84
2022-10-16T08:25:42.042Z,100701.03
2022-10-16T08:28:11.114Z,100704.97
2022-10-16T08:30:37.959Z,100679.09
2022-10-16T08:33:04.642Z,100712.94
2022-10-16T08:35:32.849Z,100678.53
2022-10-16T08:37:59.291Z,100726.16
2022-10-16T08:40:27.995Z,100723.84
2022-10-16T08:43:22.665Z,100734.94
2022-10-16T08:46:13.973Z,100724.69
2022-10-16T08:48:53.500Z,100735.50
2022-10-16T08:51:25.643Z,100730.41
2022-10-16T08:54:00.649Z,100737.44
2022-10-16T08:56:27.355Z,100712.38
2022-10-16T08:58:58.030Z,100735.19
2022-10-16T09:01:40.320Z,100733.13
2022-10-16T09:04:21.734Z,100764.88
2022-10-16T09:07:02.179Z,100761.94
2022-10-16T09:09:34.824Z,100755.97
2022-10-16T09:12:14.746Z,100771.28
2022-10-16T09:14:57.849Z,100771.34
2022-10-16T09:17:27.515Z,100771.34
2022-10-16T09:20:21.258Z,100789.59
2022-10-16T09:22:49.771Z,100728.84
2022-10-16T09:25:19.380Z,100774.28
2022-10-16T09:27:48.585Z,100766.81
2022-10-16T09:30:17.618Z,100776.97
2022-10-16T09:32:45.016Z,100758.56
2022-10-16T09:35:16.679Z,100771.56
2022-10-16T09:37:44.672Z,100764.59
2022-10-16T09:40:25.337Z,100761.88
2022-10-16T09:42:55.978Z,100759.97
2022-10-16T09:45:24.369Z,100729.06
2022-10-16T09:47:54.126Z,100769.09
2022-10-16T09:50:27.359Z,100749.94
2022-10-16T09:53:13.651Z,100782.88
2022-10-16T09:55:55.411Z,100780.19
2022-10-16T09:58:24.426Z,100785.94
2022-10-16T10:00:54.430Z,100790.09
2022-10-16T10:03:39.115Z,100786.97
2022-10-16T10:06:27.108Z,100794.09
2022-10-16T10:09:21.693Z,100777.09
2022-10-16T10:11:56.621Z,100772.13
2022-10-16T10:14:41.148Z,100781.13
2022-10-16T10:17:07.855Z,100783.28
2022-10-16T10:19:41.800Z,100792.28
2022-10-16T10:22:47.489Z,100788.84
2022-10-16T10:25:14.099Z,100792.06
2022-10-16T10:28:15.569Z,100793.13
2022-10-16T10:30:42.066Z,100782.97
2022-10-16T10:33:27.044Z,100798.88
2022-10-16T10:36:15.427Z,100798.66
2022-10-16T10:38:45.129Z,100804.88
2022-10-16T10:41:14.107Z,100805.78
2022-10-16T10:44:12.230Z,100798.66
2022-10-16T10:46:59.297Z,100807.06
2022-10-16T10:49:58.429Z,100795.78
2022-10-16T10:52:51.601Z,100793.25
2022-10-16T10:55:43.399Z,100796.56
2022-10-16T10:58:17.126Z,100799.94
2022-10-16T11:01:05.473Z,100772.34
2022-10-16T11:03:58.469Z,100774.59
2022-10-16T11:06:46.950Z,100770.84
2022-10-16T11:09:18.376Z,100788.06
2022-10-16T11:12:10.446Z,100793.94
2022-10-16T11:14:44.315Z,100781.75
2022-10-16T11:17:15.326Z,100799.72
2022-10-16T11:19:50.967Z,100791.31
2022-10-16T11:22:23.620Z,100795.66
2022-10-16T11:24:55.003Z,100795.19
2022-10-16T11:27:36.189Z,100762.94
2022-10-16T11:30:06.992Z,100796.16
2022-10-16T11:32:40.279Z,100791.75
2022-10-16T11:35:18.310Z,100742.97
2022-10-16T11:37:45.864Z,100808.63
2022-10-16T11:40:22.532Z,100776.88
2022-10-16T11:42:59.097Z,100793.50
2022-10-16T11:45:35.891Z,100701.00
2022-10-16T11:48:27.696Z,100802.06
2022-10-16T11:50:58.106Z,100793.38
2022-10-16T11:53:42.548Z,100795.13
2022-10-16T11:56:09.125Z,100782.38
2022-10-16T11:58:46.281Z,100805.50
2022-10-16T12:01:18.691Z,100802.25
2022-10-16T12:03:50.755Z,100794.69
2022-10-16T12:06:45.550Z,100783.63
2022-10-16T12:09:30.150Z,100806.34
2022-10-16T12:11:56.728Z,100814.41
2022-10-16T12:14:42.983Z,100768.69
2022-10-16T12:17:36.173Z,100825.66
2022-10-16T12:20:23.883Z,100829.41
2022-10-16T12:22:56.398Z,100834.91
2022-10-16T12:25:24.200Z,100841.50
2022-10-16T12:28:21.780Z,100831.44
2022-10-16T12:30:56.868Z,100829.31
2022-10-16T12:33:26.250Z,100790.16
2022-10-16T12:35:53.160Z,100798.19
2022-10-16T12:38:50.737Z,100802.41
2022-10-16T12:41:31.705Z,100826.22
2022-10-16T12:44:02.055Z,100820.47
2022-10-16T12:46:31.602Z,100843.28
2022-10-16T12:49:08.329Z,100840.94
2022-10-16T12:51:38.426Z,100850.78
2022-10-16T12:54:07.926Z,100851.94
2022-10-16T12:56:43.507Z,100855.03
2022-10-16T12:59:25.649Z,100823.22
2022-10-16T13:02:21.561Z,100814.13
2022-10-16T13:05:33.271Z,100821.06
2022-10-16T13:08:09.035Z,100846.03
2022-10-16T13:10:42.527Z,100858.91
2022-10-16T13:13:08.949Z,100855.66
2022-10-16T13:16:03.911Z,100842.09
2022-10-16T13:19:11.659Z,100861.94
2022-10-16T13:22:06.211Z,100858.00
2022-10-16T13:25:13.954Z,100851.69
2022-10-16T13:28:06.860Z,100861.97
2022-10-16T13:30:47.657Z,100858.63
2022-10-16T13:33:18.714Z,100856.75
2022-10-16T13:35:51.929Z,100856.31
2022-10-16T13:38:21.105Z,100824.94
2022-10-16T13:41:01.795Z,100861.13
2022-10-16T13:43:41.374Z,100863.84
2022-10-16T13:46:19.196Z,100860.03
2022-10-16T13:49:01.459Z,100867.75
2022-10-16T13:51:29.955Z,100877.41
2022-10-16T13:53:58.012Z,100869.88
2022-10-16T13:56:30.938Z,100834.53
2022-10-16T13:59:22.393Z,100902.56
2022-10-16T14:01:49.281Z,100893.78
2022-10-16T14:04:16.084Z,100872.19
2022-10-16T14:06:45.184Z,100821.41
2022-10-16T14:09:29.113Z,100851.00
2022-10-16T14:12:01.215Z,100854.50
2022-10-16T14:14:43.211Z,100867.47
2022-10-16T14:17:17.595Z,100817.63
2022-10-16T14:19:48.606Z,100843.03
2022-10-16T14:22:32.353Z,100870.88
2022-10-16T14:24:59.498Z,100872.69
2022-10-16T14:27:30.990Z,100869.59
2022-10-16T14:30:18.312Z,100874.41
2022-10-16T14:33:05.981Z,100870.13
2022-10-16T14:35:38.272Z,100851.47
2022-10-16T14:38:06.696Z,100845.59
2022-10-16T14:40:38.016Z,100888.44
2022-10-16T14:43:05.750Z,100852.69
2022-10-16T14:45:34.604Z,100899.56
2022-10-16T14:48:05.270Z,100862.13
2022-10-16T14:50:31.802Z,100902.22
2022-10-16T14:52:59.518Z,100900.25
2022-10-16T14:55:26.527Z,100906.28
2022-10-16T14:57:56.873Z,100884.13
2022-10-16T15:00:26.361Z,100867.47
2022-10-16T15:02:52.895Z,100899.72
2022-10-16T15:05:27.507Z,100893.44
2022-10-16T15:07:56.355Z,100889.28
2022-10-16T15:10:25.424Z,100806.88
2022-10-16T15:12:51.998Z,100787.53
2022-10-16T15:15:24.652Z,100867.31
2022-10-16T15:17:56.948Z,100872.16
2022-10-16T15:20:28.653Z,100898.94
2022-10-16T15:22:55.408Z,100907.63
2022-10-16T15:25:33.911Z,100899.97
2022-10-16T15:28:01.964Z,100883.53
2022-10-16T15:30:28.819Z,100870.66
2022-10-16T15:32:55.367Z,100867.72
2022-10-16T15:35:22.360Z,100892.81
2022-10-16T15:37:49.581Z,100848.09
2022-10-16T15:40:18.003Z,100881.13
2022-10-16T15:42:45.908Z,100862.00
2022-10-16T15:45:13.476Z,100869.16
2022-10-16T15:47:44.978Z,100896.94
2022-10-16T15:50:14.170Z,100888.09
2022-10-16T15:52:41.155Z,100907.47
2022-10-16T15:55:13.291Z,100858.88
2022-10-16T15:57:41.651Z,100888.66
2022-10-16T16:00:13.913Z,100900.13
2022-10-16T16:02:42.578Z,100883.13
2022-10-16T16:05:11.813Z,100831.97
2022-10-16T16:07:40.785Z,100880.53
2022-10-16T16:10:09.292Z,100889.31
2022-10-16T16:12:36.042Z,100851.31
2022-10-16T16:15:05.606Z,100892.22
2022-10-16T16:17:34.315Z,100906.56
2022-10-16T16:20:00.782Z,100890.59
2022-10-16T16:22:28.007Z,100893.81
2022-10-16T16:24:54.840Z,100896.59
2022-10-16T16:27:21.513Z,100890.53
2022-10-16T16:29:48.685Z,100894.94
2022-10-16T16:32:15.430Z,100906.09
2022-10-16T16:34:42.024Z,100862.59
2022-10-16T16:37:09.049Z,100887.66
2022-10-16T16:39:35.637Z,100904.25
2022-10-16T16:42:03.909Z,100867.56
2022-10-16T16:44:30.866Z,100808.22
2022-10-16T16:46:57.390Z,100909.25
2022-10-16T16:49:24.375Z,100895.50
2022-10-16T16:51:50.981Z,100908.69
2022-10-16T16:54:17.760Z,100917.28
2022-10-16T16:56:45.246Z,100890.28
2022-10-16T16:59:20.615Z,100930.97
2022-10-16T17:01:48.072Z,100902.09
2022-10-16T17:04:16.703Z,100859.66
2022-10-16T17:06:43.585Z,100902.38
2022-10-16T17:09:13.660Z,100939.81
2022-10-16T17:11:42.467Z,100928.00
2022-10-16T17:14:09.151Z,100929.47
2022-10-16T17:16:37.155Z,100935.34
2022-10-16T17:19:08.241Z,100907.22
2022-10-16T17:21:35.420Z,100942.88
2022-10-16T17:24:02.454Z,100944.09
2022-10-16T17:26:29.513Z,100947.28
2022-10-16T17:28:58.081Z,100957.88
2022-10-16T17:31:27.985Z,100950.63
2022-10-16T17:33:54.865Z,100957.59
2022-10-16T17:36:22.441Z,100952.03
2022-10-16T17:38:49.083Z,100954.69
2022-10-16T17:41:18.452Z,100858.59
2022-10-16T17:43:45.747Z,100949.53
2022-10-16T17:46:13.239Z,100955.69
2022-10-16T17:48:45.588Z,100951.28
2022-10-16T17:51:17.802Z,100968.22
2022-10-16T17:53:44.859Z,100957.44
2022-10-16T17:56:13.734Z,100953.41
2022-10-16T17:58:41.309Z,100883.34
2022-10-16T18:01:20.001Z,100946.97
2022-10-16T18:04:01.542Z,100961.41
2022-10-16T18:06:29.140Z,100906.34
2022-10-16T18:08:57.616Z,100974.91
2022-10-16T18:11:24.570Z,100931.53
2022-10-16T18:13:56.874Z,100975.59
2022-10-16T18:16:24.570Z,100966.78
2022-10-16T18:18:51.824Z,100966.03
2022-10-16T18:21:20.159Z,100907.78
2022-10-16T18:23:51.729Z,100965.72
2022-10-16T18:26:21.979Z,100905.59
2022-10-16T18:28:50.889Z,100979.22
2022-10-16T18:31:17.847Z,100975.75
2022-10-16T18:33:48.488Z,100985.53
2022-10-16T18:36:16.573Z,100984.44
2022-10-16T18:38:46.689Z,100980.81
2022-10-16T18:41:13.392Z,100983.97
2022-10-16T18:43:40.448Z,100956.94
2022-10-16T18:46:15.991Z,100941.31
2022-10-16T18:48:42.754Z,100905.19
2022-10-16T18:51:21.560Z,100981.53
2022-10-16T18:53:52.038Z,100974.06
2022-10-16T18:56:20.774Z,100972.88
2022-10-16T18:58:53.671Z,100966.38
2022-10-16T19:01:24.669Z,100921.56
2022-10-16T19:04:05.089Z,100960.22
2022-10-16T19:06:34.896Z,100964.84
2022-10-16T19:09:02.015Z,100959.53
2022-10-16T19:11:28.678Z,100952.81
2022-10-16T19:13:56.801Z,100928.78
2022-10-16T19:16:29.764Z,100964.75
2022-10-16T19:19:06.997Z,100960.00
2022-10-16T19:21:36.882Z,100974.16
2022-10-16T19:24:04.135Z,100971.34
2022-10-16T19:26:31.716Z,100900.91
2022-10-16T19:29:00.842Z,100952.84
2022-10-16T19:31:30.104Z,100972.13
2022-10-16T19:33:59.065Z,100996.66
2022-10-16T19:36:31.310Z,101013.03
2022-10-16T19:39:04.845Z,100973.41
2022-10-16T19:41:31.764Z,101009.31
2022-10-16T19:44:02.478Z,101040.84
2022-10-16T19:46:29.940Z,101038.16
2022-10-16T19:49:01.410Z,101071.13
2022-10-16T19:51:28.465Z,100999.78
2022-10-16T19:53:57.046Z,101019.31
2022-10-16T19:56:25.275Z,101036.78
2022-10-16T19:58:54.838Z,100975.19
2022-10-16T20:01:22.333Z,101034.75
2022-10-16T20:03:52.735Z,101051.19
2022-10-16T20:06:19.868Z,100983.94
2022-10-16T20:08:48.672Z,100996.44
2022-10-16T20:11:17.683Z,101044.91
2022-10-16T20:13:44.616Z,101027.91
2022-10-16T20:16:13.703Z,101039.28
2022-10-16T20:18:41.354Z,101010.00
2022-10-16T20:21:12.711Z,101055.75
2022-10-16T20:23:39.833Z,101023.34
2022-10-16T20:26:06.686Z,101044.69
2022-10-16T20:28:33.342Z,101043.66
2022-10-16T20:31:06.993Z,101020.41
2022-10-16T20:33:33.691Z,101028.22
2022-10-16T20:36:00.210Z,101022.56
2022-10-16T20:38:26.696Z,101041.53
2022-10-16T20:40:53.179Z,101035.75
2022-10-16T20:43:19.704Z,101038.66
2022-10-16T20:45:46.355Z,101044.56
2022-10-16T20:48:13.813Z,101043.44
2022-10-16T20:50:41.385Z,101038.06
2022-10-16T20:53:08.367Z,101037.00
2022-10-16T20:55:37.235Z,101032.84
2022-10-16T20:58:05.207Z,101039.56
2022-10-16T21:00:31.852Z,101032.84
2022-10-16T21:02:58.348Z,100997.91
2022-10-16T21:05:28.723Z,101013.06
2022-10-16T21:07:56.000Z,101036.78
2022-10-16T21:10:22.961Z,101019.94
2022-10-16T21:12:55.499Z,101050.72
2022-10-16T21:15:22.581Z,101046.69
2022-10-16T21:17:49.221Z,101020.16
2022-10-16T21:20:15.801Z,101047.94
2022-10-16T21:22:42.279Z,101051.19
2022-10-16T21:25:09.199Z,101032.53
2022-10-16T21:27:40.239Z,101042.28
2022-10-16T21:30:08.729Z,101049.56
2022-10-16T21:32:38.769Z,101013.91
2022-10-16T21:35:06.509Z,101033.09
2022-10-16T21:37:33.690Z,101045.19
2022-10-16T21:40:00.233Z,101004.41
2022-10-16T21:42:26.963Z,101011.16
2022-10-16T21:44:53.623Z,100980.88
2022-10-16T21:47:20.174Z,100955.16
2022-10-16T21:49:46.825Z,100978.50
2022-10-16T21:52:13.377Z,100988.63
2022-10-16T21:54:39.934Z,101024.69
2022-10-16T21:57:06.424Z,100995.03
2022-10-16T21:59:32.895Z,101027.19
2022-10-16T22:02:02.491Z,100979.59
2022-10-16T22:04:29.000Z,101010.78
2022-10-16T22:06:55.426Z,101025.66
2022-10-16T22:09:21.881Z,101025.66
2022-10-16T22:11:49.875Z,100984.06
2022-10-16T22:14:19.005Z,101007.84
2022-10-16T22:16:46.229Z,101013.91
2022-10-16T22:19:14.307Z,100973.50
2022-10-16T22:21:41.810Z,101002.31
2022-10-16T22:24:09.083Z,101014.56
2022-10-16T22:26:36.491Z,101011.53
2022-10-16T22:29:03.434Z,100995.00
2022-10-16T22:31:30.101Z,100930.91
2022-10-16T22:33:58.571Z,100970.41
2022-10-16T22:36:25.785Z,101002.00
2022-10-16T22:38:53.447Z,101005.22
2022-10-16T22:41:20.396Z,100948.88
2022-10-16T22:43:48.760Z,101000.88
2022-10-16T22:46:18.025Z,100983.88
2022-10-16T22:48:44.924Z,100982.53
2022-10-16T22:51:16.673Z,101008.78
2022-10-16T22:53:45.601Z,101016.13
2022-10-16T22:56:12.888Z,101015.13
2022-10-16T22:58:39.387Z,101024.56
2022-10-16T23:01:19.652Z,101004.31
2022-10-16T23:03:46.261Z,100992.59
2022-10-16T23:06:13.206Z,101013.59
2022-10-16T23:08:39.792Z,101026.75
2022-10-16T23:11:08.898Z,100990.09
2022-10-16T23:13:45.659Z,100966.41
2022-10-16T23:16:14.541Z,101002.91
2022-10-16T23:18:43.240Z,101008.44
2022-10-16T23:21:16.366Z,100976.47
2022-10-16T23:23:44.743Z,101006.75
2022-10-16T23:26:14.668Z,101012.84
2022-10-16T23:28:41.817Z,101012.97
2022-10-16T23:31:09.597Z,101008.47
2022-10-16T23:33:37.476Z,101010.78
2022-10-16T23:36:12.746Z,101012.84
2022-10-16T23:38:39.883Z,101011.16
2022-10-16T23:41:06.975Z,101012.47
2022-10-16T23:43:33.579Z,101006.47
2022-10-16T23:46:00.165Z,101003.41
2022-10-16T23:48:26.713Z,101013.47
2022-10-16T23:50:53.438Z,101007.47
2022-10-16T23:53:20.340Z,100984.88
2022-10-16T23:55:46.923Z,101014.69
2022-10-16T23:58:13.525Z,100974.63
